This is the latest recevied weather packets stored in our database for station/object AD8IZ-13. If no packets are shown the sender has not sent any weather packets the latest 10 day(s).
| Time | Temp. | Humidity | Pressure | Rain* | Wind** | Luminosity | Snow |
|---|---|---|---|---|---|---|---|
| 1787422521 | 29.44° C | 63% | 1010.9 hPa | 0 mm | - | 834 W/m² | - |
| 1787421918 | 29.44° C | 61% | 1011.1 hPa | 0 mm | - | 853 W/m² | - |
| 1787421319 | 28.89° C | 63% | 1011.4 hPa | 0 mm | - | 860 W/m² | - |
| 1787420720 | 28.89° C | 62% | 1011.6 hPa | 0 mm | - | 551 W/m² | - |
| 1787420119 | 28.33° C | 62% | 1011.8 hPa | 0 mm | - | 758 W/m² | - |
| 1787419519 | 28.33° C | 62% | 1012.1 hPa | 0 mm | - | 866 W/m² | - |
| 1787418921 | 27.78° C | 61% | 1012.4 hPa | 0 mm | - | 859 W/m² | - |
| 1787418319 | 27.22° C | 69% | 1012.5 hPa | 0 mm | - | 873 W/m² | - |
| 1787417722 | 27.22° C | 68% | 1012.6 hPa | 0 mm | - | 356 W/m² | - |
| 1787417121 | 27.22° C | 68% | 1012.6 hPa | 0 mm | - | 648 W/m² | - |
| 1787416519 | 26.67° C | 74% | 1012.8 hPa | 0 mm | - | 768 W/m² | - |
| 1787415922 | 26.11° C | 79% | 1012.9 hPa | 0 mm | - | 517 W/m² | - |
| 1787415319 | 26.11° C | 80% | 1012.9 hPa | 0 mm | - | 332 W/m² | - |
| 1787414718 | 26.67° C | 79% | 1012.9 hPa | 0 mm | - | 285 W/m² | - |
| 1787414118 | 26.11° C | 79% | 1012.9 hPa | 0 mm | - | 313 W/m² | - |
| 1787413521 | 26.67° C | 79% | 1013 hPa | 0 mm | - | 474 W/m² | - |
| 1787412926 | 26.67° C | 77% | 1013.1 hPa | 0 mm | - | 339 W/m² | - |
| 1787412318 | 26.67° C | 76% | 1013.1 hPa | 0 mm | - | 543 W/m² | - |
| 1787411721 | 26.11° C | 78% | 1013.3 hPa | 0 mm | - | 703 W/m² | - |
| 1787411118 | 26.11° C | 79% | 1013.4 hPa | 0 mm | - | 402 W/m² | - |
| 1787410521 | 26.11° C | 78% | 1013.3 hPa | 0 mm | - | 239 W/m² | - |
| 1787409919 | 25.56° C | 80% | 1013.5 hPa | 0 mm | - | 629 W/m² | - |
| 1787409319 | 25° C | 81% | 1013.6 hPa | 0 mm | - | 610 W/m² | - |
| 1787408719 | 24.44° C | 83% | 1013.7 hPa | 0 mm | - | 581 W/m² | - |
| 1787408131 | 23.89° C | 83% | 1013.8 hPa | 0 mm | - | 238 W/m² | - |
* Rain latest hour (hover to see other rain measurements)
** Current wind speed in m/s (hover to see current wind gust speed)